sensor_id;sensor_type;location;lat;lon;timestamp;P1;durP1;ratioP1;P2;durP2;ratioP2
35667;SDS011;22158;59.280;17.806;2023-06-14T00:00:13;5.28;;;2.20;;
35667;SDS011;22158;59.280;17.806;2023-06-14T00:02:40;3.08;;;1.92;;
35667;SDS011;22158;59.280;17.806;2023-06-14T00:05:06;4.35;;;2.30;;
35667;SDS011;22158;59.280;17.806;2023-06-14T00:07:36;7.22;;;2.20;;
35667;SDS011;22158;59.280;17.806;2023-06-14T00:12:30;3.40;;;2.33;;
35667;SDS011;22158;59.280;17.806;2023-06-14T00:14:56;7.88;;;2.30;;
35667;SDS011;22158;59.280;17.806;2023-06-14T00:17:22;7.47;;;2.55;;
35667;SDS011;22158;59.280;17.806;2023-06-14T00:19:47;3.67;;;2.17;;
35667;SDS011;22158;59.280;17.806;2023-06-14T00:22:13;4.75;;;2.47;;
35667;SDS011;22158;59.280;17.806;2023-06-14T00:24:39;5.18;;;2.47;;
35667;SDS011;22158;59.280;17.806;2023-06-14T00:27:04;4.25;;;2.10;;
35667;SDS011;22158;59.280;17.806;2023-06-14T00:29:30;8.93;;;2.60;;
35667;SDS011;22158;59.280;17.806;2023-06-14T00:31:56;3.65;;;2.45;;
35667;SDS011;22158;59.280;17.806;2023-06-14T00:34:21;3.50;;;2.17;;
35667;SDS011;22158;59.280;17.806;2023-06-14T00:36:47;4.10;;;2.42;;
35667;SDS011;22158;59.280;17.806;2023-06-14T00:39:13;5.90;;;2.25;;
35667;SDS011;22158;59.280;17.806;2023-06-14T00:41:39;4.05;;;2.17;;
35667;SDS011;22158;59.280;17.806;2023-06-14T00:44:05;3.80;;;2.50;;
35667;SDS011;22158;59.280;17.806;2023-06-14T00:46:30;5.07;;;2.40;;
35667;SDS011;22158;59.280;17.806;2023-06-14T00:48:56;4.28;;;2.90;;
35667;SDS011;22158;59.280;17.806;2023-06-14T00:51:23;5.97;;;2.50;;
35667;SDS011;22158;59.280;17.806;2023-06-14T00:53:50;3.85;;;2.13;;
35667;SDS011;22158;59.280;17.806;2023-06-14T00:56:16;2.85;;;2.25;;
35667;SDS011;22158;59.280;17.806;2023-06-14T00:58:45;3.38;;;2.20;;
35667;SDS011;22158;59.280;17.806;2023-06-14T01:01:11;4.10;;;2.70;;
35667;SDS011;22158;59.280;17.806;2023-06-14T01:03:37;3.85;;;2.33;;
35667;SDS011;22158;59.280;17.806;2023-06-14T01:06:15;3.40;;;2.47;;
35667;SDS011;22158;59.280;17.806;2023-06-14T01:09:06;3.58;;;2.42;;
35667;SDS011;22158;59.280;17.806;2023-06-14T01:11:58;6.40;;;2.58;;
35667;SDS011;22158;59.280;17.806;2023-06-14T01:14:27;3.22;;;2.25;;
35667;SDS011;22158;59.280;17.806;2023-06-14T01:16:55;6.72;;;2.00;;
35667;SDS011;22158;59.280;17.806;2023-06-14T01:19:24;5.22;;;2.55;;
35667;SDS011;22158;59.280;17.806;2023-06-14T01:21:50;6.00;;;2.50;;
35667;SDS011;22158;59.280;17.806;2023-06-14T01:24:17;3.00;;;2.70;;
35667;SDS011;22158;59.280;17.806;2023-06-14T01:26:51;4.05;;;2.08;;
35667;SDS011;22158;59.280;17.806;2023-06-14T01:29:20;3.35;;;2.25;;
35667;SDS011;22158;59.280;17.806;2023-06-14T01:31:48;4.57;;;2.83;;
35667;SDS011;22158;59.280;17.806;2023-06-14T01:34:14;4.55;;;2.60;;
35667;SDS011;22158;59.280;17.806;2023-06-14T01:36:40;9.35;;;2.40;;
35667;SDS011;22158;59.280;17.806;2023-06-14T01:39:08;3.78;;;2.67;;
35667;SDS011;22158;59.280;17.806;2023-06-14T01:41:40;4.05;;;2.15;;
35667;SDS011;22158;59.280;17.806;2023-06-14T01:44:06;6.00;;;3.10;;
35667;SDS011;22158;59.280;17.806;2023-06-14T01:46:32;5.88;;;2.40;;
35667;SDS011;22158;59.280;17.806;2023-06-14T01:48:58;4.32;;;2.53;;
35667;SDS011;22158;59.280;17.806;2023-06-14T01:51:24;4.00;;;2.30;;
35667;SDS011;22158;59.280;17.806;2023-06-14T01:53:50;5.68;;;2.10;;
35667;SDS011;22158;59.280;17.806;2023-06-14T01:56:15;4.28;;;2.20;;
35667;SDS011;22158;59.280;17.806;2023-06-14T01:58:41;5.47;;;2.67;;
35667;SDS011;22158;59.280;17.806;2023-06-14T02:01:07;9.27;;;4.30;;
35667;SDS011;22158;59.280;17.806;2023-06-14T02:03:33;3.45;;;2.30;;
35667;SDS011;22158;59.280;17.806;2023-06-14T02:05:59;4.88;;;2.30;;
35667;SDS011;22158;59.280;17.806;2023-06-14T02:08:25;8.10;;;2.85;;
35667;SDS011;22158;59.280;17.806;2023-06-14T02:10:51;4.93;;;2.67;;
35667;SDS011;22158;59.280;17.806;2023-06-14T02:13:16;8.18;;;2.70;;
35667;SDS011;22158;59.280;17.806;2023-06-14T02:15:42;4.00;;;2.15;;
35667;SDS011;22158;59.280;17.806;2023-06-14T02:18:09;4.18;;;2.58;;
35667;SDS011;22158;59.280;17.806;2023-06-14T02:20:34;4.97;;;2.60;;
35667;SDS011;22158;59.280;17.806;2023-06-14T02:23:00;5.07;;;2.67;;
35667;SDS011;22158;59.280;17.806;2023-06-14T02:25:26;8.57;;;2.85;;
35667;SDS011;22158;59.280;17.806;2023-06-14T02:27:54;3.53;;;2.55;;
35667;SDS011;22158;59.280;17.806;2023-06-14T02:30:20;3.45;;;2.72;;
35667;SDS011;22158;59.280;17.806;2023-06-14T02:32:46;7.43;;;2.17;;
35667;SDS011;22158;59.280;17.806;2023-06-14T02:35:13;4.47;;;2.72;;
35667;SDS011;22158;59.280;17.806;2023-06-14T02:37:39;7.72;;;2.70;;
35667;SDS011;22158;59.280;17.806;2023-06-14T02:40:05;6.00;;;2.55;;
35667;SDS011;22158;59.280;17.806;2023-06-14T02:42:31;11.55;;;3.72;;
35667;SDS011;22158;59.280;17.806;2023-06-14T02:44:56;5.43;;;2.63;;
35667;SDS011;22158;59.280;17.806;2023-06-14T02:47:22;5.65;;;2.38;;
35667;SDS011;22158;59.280;17.806;2023-06-14T02:49:48;8.52;;;4.10;;
35667;SDS011;22158;59.280;17.806;2023-06-14T02:52:13;4.40;;;2.65;;
35667;SDS011;22158;59.280;17.806;2023-06-14T02:54:39;5.57;;;2.63;;
35667;SDS011;22158;59.280;17.806;2023-06-14T02:57:05;5.40;;;2.88;;
35667;SDS011;22158;59.280;17.806;2023-06-14T02:59:32;4.88;;;2.20;;
35667;SDS011;22158;59.280;17.806;2023-06-14T03:01:58;4.10;;;2.83;;
35667;SDS011;22158;59.280;17.806;2023-06-14T03:04:24;4.97;;;2.72;;
35667;SDS011;22158;59.280;17.806;2023-06-14T03:06:51;3.15;;;2.15;;
35667;SDS011;22158;59.280;17.806;2023-06-14T03:09:18;7.70;;;2.80;;
35667;SDS011;22158;59.280;17.806;2023-06-14T03:11:44;7.63;;;3.00;;
35667;SDS011;22158;59.280;17.806;2023-06-14T03:14:10;9.20;;;2.70;;
35667;SDS011;22158;59.280;17.806;2023-06-14T03:16:36;7.70;;;3.10;;
35667;SDS011;22158;59.280;17.806;2023-06-14T03:19:02;5.30;;;2.67;;
35667;SDS011;22158;59.280;17.806;2023-06-14T03:21:28;7.97;;;2.67;;
35667;SDS011;22158;59.280;17.806;2023-06-14T03:23:53;4.15;;;2.78;;
35667;SDS011;22158;59.280;17.806;2023-06-14T03:26:19;7.95;;;3.38;;
35667;SDS011;22158;59.280;17.806;2023-06-14T03:28:45;6.53;;;2.50;;
35667;SDS011;22158;59.280;17.806;2023-06-14T03:31:11;14.18;;;3.17;;
35667;SDS011;22158;59.280;17.806;2023-06-14T03:33:38;6.93;;;2.92;;
35667;SDS011;22158;59.280;17.806;2023-06-14T03:36:04;7.18;;;2.97;;
35667;SDS011;22158;59.280;17.806;2023-06-14T03:38:29;5.28;;;2.75;;
35667;SDS011;22158;59.280;17.806;2023-06-14T03:40:55;11.80;;;3.38;;
35667;SDS011;22158;59.280;17.806;2023-06-14T03:43:21;4.93;;;3.08;;
35667;SDS011;22158;59.280;17.806;2023-06-14T03:45:46;8.82;;;2.78;;
35667;SDS011;22158;59.280;17.806;2023-06-14T03:48:12;5.40;;;3.10;;
35667;SDS011;22158;59.280;17.806;2023-06-14T03:50:37;9.35;;;3.13;;
35667;SDS011;22158;59.280;17.806;2023-06-14T03:53:03;7.60;;;2.97;;
35667;SDS011;22158;59.280;17.806;2023-06-14T03:55:30;5.57;;;2.67;;
35667;SDS011;22158;59.280;17.806;2023-06-14T03:57:58;11.00;;;3.53;;
35667;SDS011;22158;59.280;17.806;2023-06-14T04:00:24;21.40;;;5.15;;
35667;SDS011;22158;59.280;17.806;2023-06-14T04:02:50;14.60;;;4.25;;
35667;SDS011;22158;59.280;17.806;2023-06-14T04:05:15;9.90;;;3.60;;
35667;SDS011;22158;59.280;17.806;2023-06-14T04:07:44;19.50;;;4.10;;
35667;SDS011;22158;59.280;17.806;2023-06-14T04:10:13;10.50;;;4.05;;
35667;SDS011;22158;59.280;17.806;2023-06-14T04:12:40;14.32;;;3.90;;
35667;SDS011;22158;59.280;17.806;2023-06-14T04:15:07;10.10;;;2.97;;
35667;SDS011;22158;59.280;17.806;2023-06-14T04:17:33;6.80;;;3.05;;
35667;SDS011;22158;59.280;17.806;2023-06-14T04:20:00;4.75;;;2.67;;
35667;SDS011;22158;59.280;17.806;2023-06-14T04:22:28;8.13;;;3.08;;
35667;SDS011;22158;59.280;17.806;2023-06-14T04:24:55;5.70;;;3.10;;
35667;SDS011;22158;59.280;17.806;2023-06-14T04:27:25;6.57;;;3.20;;
35667;SDS011;22158;59.280;17.806;2023-06-14T04:29:52;27.58;;;6.05;;
35667;SDS011;22158;59.280;17.806;2023-06-14T04:32:23;52.83;;;6.40;;
35667;SDS011;22158;59.280;17.806;2023-06-14T04:34:50;25.63;;;4.47;;
35667;SDS011;22158;59.280;17.806;2023-06-14T04:37:18;13.35;;;4.00;;
35667;SDS011;22158;59.280;17.806;2023-06-14T04:39:45;7.20;;;3.35;;
35667;SDS011;22158;59.280;17.806;2023-06-14T04:42:12;9.40;;;3.35;;
35667;SDS011;22158;59.280;17.806;2023-06-14T04:44:39;9.48;;;4.28;;
35667;SDS011;22158;59.280;17.806;2023-06-14T04:47:09;6.47;;;2.78;;
35667;SDS011;22158;59.280;17.806;2023-06-14T04:49:34;8.35;;;2.95;;
35667;SDS011;22158;59.280;17.806;2023-06-14T04:52:00;4.60;;;3.13;;
35667;SDS011;22158;59.280;17.806;2023-06-14T04:54:26;13.10;;;3.40;;
35667;SDS011;22158;59.280;17.806;2023-06-14T04:56:52;18.88;;;3.55;;
35667;SDS011;22158;59.280;17.806;2023-06-14T04:59:20;8.57;;;3.13;;
35667;SDS011;22158;59.280;17.806;2023-06-14T05:01:48;7.90;;;2.88;;
35667;SDS011;22158;59.280;17.806;2023-06-14T05:04:17;8.90;;;3.22;;
35667;SDS011;22158;59.280;17.806;2023-06-14T05:06:44;10.20;;;3.53;;
35667;SDS011;22158;59.280;17.806;2023-06-14T05:09:10;7.53;;;2.90;;
35667;SDS011;22158;59.280;17.806;2023-06-14T05:11:36;8.27;;;3.42;;
35667;SDS011;22158;59.280;17.806;2023-06-14T05:14:02;7.50;;;2.83;;
35667;SDS011;22158;59.280;17.806;2023-06-14T05:16:28;6.00;;;2.47;;
35667;SDS011;22158;59.280;17.806;2023-06-14T05:18:54;11.57;;;4.18;;
35667;SDS011;22158;59.280;17.806;2023-06-14T05:21:20;9.80;;;3.13;;
35667;SDS011;22158;59.280;17.806;2023-06-14T05:23:45;13.10;;;4.28;;
35667;SDS011;22158;59.280;17.806;2023-06-14T05:26:11;10.85;;;3.65;;
35667;SDS011;22158;59.280;17.806;2023-06-14T05:28:37;4.50;;;2.40;;
35667;SDS011;22158;59.280;17.806;2023-06-14T05:31:02;8.48;;;3.40;;
35667;SDS011;22158;59.280;17.806;2023-06-14T05:33:28;19.02;;;4.15;;
35667;SDS011;22158;59.280;17.806;2023-06-14T05:35:54;7.22;;;2.92;;
35667;SDS011;22158;59.280;17.806;2023-06-14T05:38:20;8.13;;;3.53;;
35667;SDS011;22158;59.280;17.806;2023-06-14T05:40:46;6.15;;;3.15;;
35667;SDS011;22158;59.280;17.806;2023-06-14T05:43:11;10.52;;;3.92;;
35667;SDS011;22158;59.280;17.806;2023-06-14T05:45:37;8.65;;;3.15;;
35667;SDS011;22158;59.280;17.806;2023-06-14T05:48:02;4.55;;;2.70;;
35667;SDS011;22158;59.280;17.806;2023-06-14T05:50:28;4.72;;;2.90;;
35667;SDS011;22158;59.280;17.806;2023-06-14T05:52:55;7.93;;;2.97;;
35667;SDS011;22158;59.280;17.806;2023-06-14T05:55:21;9.90;;;3.83;;
35667;SDS011;22158;59.280;17.806;2023-06-14T05:57:46;7.90;;;2.80;;
35667;SDS011;22158;59.280;17.806;2023-06-14T06:00:13;8.93;;;2.83;;
35667;SDS011;22158;59.280;17.806;2023-06-14T06:02:41;18.60;;;4.40;;
35667;SDS011;22158;59.280;17.806;2023-06-14T06:05:11;7.60;;;2.95;;
35667;SDS011;22158;59.280;17.806;2023-06-14T06:07:37;6.38;;;2.70;;
35667;SDS011;22158;59.280;17.806;2023-06-14T06:10:05;6.65;;;2.63;;
35667;SDS011;22158;59.280;17.806;2023-06-14T06:12:31;7.10;;;2.40;;
35667;SDS011;22158;59.280;17.806;2023-06-14T06:14:57;8.23;;;3.25;;
35667;SDS011;22158;59.280;17.806;2023-06-14T06:17:24;6.45;;;2.85;;
35667;SDS011;22158;59.280;17.806;2023-06-14T06:19:50;4.68;;;2.80;;
35667;SDS011;22158;59.280;17.806;2023-06-14T06:22:16;11.25;;;3.17;;
35667;SDS011;22158;59.280;17.806;2023-06-14T06:24:42;7.57;;;3.30;;
35667;SDS011;22158;59.280;17.806;2023-06-14T06:27:07;7.68;;;3.05;;
35667;SDS011;22158;59.280;17.806;2023-06-14T06:29:33;5.68;;;3.30;;
35667;SDS011;22158;59.280;17.806;2023-06-14T06:31:59;6.68;;;2.85;;
35667;SDS011;22158;59.280;17.806;2023-06-14T06:34:26;11.48;;;3.03;;
35667;SDS011;22158;59.280;17.806;2023-06-14T06:36:52;15.60;;;3.13;;
35667;SDS011;22158;59.280;17.806;2023-06-14T06:39:17;5.25;;;2.42;;
35667;SDS011;22158;59.280;17.806;2023-06-14T06:41:43;9.13;;;2.92;;
35667;SDS011;22158;59.280;17.806;2023-06-14T06:44:09;9.52;;;2.90;;
35667;SDS011;22158;59.280;17.806;2023-06-14T06:46:35;7.15;;;3.20;;
35667;SDS011;22158;59.280;17.806;2023-06-14T06:49:05;4.82;;;2.75;;
35667;SDS011;22158;59.280;17.806;2023-06-14T06:51:31;11.43;;;3.50;;
35667;SDS011;22158;59.280;17.806;2023-06-14T06:53:56;13.43;;;3.90;;
35667;SDS011;22158;59.280;17.806;2023-06-14T06:56:23;8.00;;;2.50;;
35667;SDS011;22158;59.280;17.806;2023-06-14T06:58:49;8.05;;;2.78;;
35667;SDS011;22158;59.280;17.806;2023-06-14T07:01:15;4.30;;;2.70;;
35667;SDS011;22158;59.280;17.806;2023-06-14T07:03:42;6.38;;;2.88;;
35667;SDS011;22158;59.280;17.806;2023-06-14T07:06:07;10.40;;;3.10;;
35667;SDS011;22158;59.280;17.806;2023-06-14T07:08:33;5.13;;;3.03;;
35667;SDS011;22158;59.280;17.806;2023-06-14T07:10:59;4.25;;;2.90;;
35667;SDS011;22158;59.280;17.806;2023-06-14T07:13:25;9.48;;;3.22;;
35667;SDS011;22158;59.280;17.806;2023-06-14T07:15:53;7.88;;;2.50;;
35667;SDS011;22158;59.280;17.806;2023-06-14T07:18:20;7.68;;;2.80;;
35667;SDS011;22158;59.280;17.806;2023-06-14T07:20:46;10.40;;;3.60;;
35667;SDS011;22158;59.280;17.806;2023-06-14T07:23:12;5.47;;;2.70;;
35667;SDS011;22158;59.280;17.806;2023-06-14T07:25:38;5.65;;;2.55;;
35667;SDS011;22158;59.280;17.806;2023-06-14T07:28:03;5.15;;;3.22;;
35667;SDS011;22158;59.280;17.806;2023-06-14T07:30:29;7.97;;;3.08;;
35667;SDS011;22158;59.280;17.806;2023-06-14T07:32:55;5.13;;;2.65;;
35667;SDS011;22158;59.280;17.806;2023-06-14T07:35:21;4.07;;;2.50;;
35667;SDS011;22158;59.280;17.806;2023-06-14T07:37:47;6.18;;;2.88;;
35667;SDS011;22158;59.280;17.806;2023-06-14T07:40:13;5.45;;;2.72;;
35667;SDS011;22158;59.280;17.806;2023-06-14T07:42:38;6.47;;;3.30;;
35667;SDS011;22158;59.280;17.806;2023-06-14T07:45:04;8.23;;;2.65;;
35667;SDS011;22158;59.280;17.806;2023-06-14T07:47:31;10.48;;;3.42;;
35667;SDS011;22158;59.280;17.806;2023-06-14T07:49:57;11.43;;;3.90;;
35667;SDS011;22158;59.280;17.806;2023-06-14T07:52:22;10.90;;;5.47;;
35667;SDS011;22158;59.280;17.806;2023-06-14T07:54:48;11.45;;;5.75;;
35667;SDS011;22158;59.280;17.806;2023-06-14T07:57:14;7.50;;;4.40;;
35667;SDS011;22158;59.280;17.806;2023-06-14T07:59:39;12.00;;;4.65;;
35667;SDS011;22158;59.280;17.806;2023-06-14T08:02:05;6.35;;;4.50;;
35667;SDS011;22158;59.280;17.806;2023-06-14T08:04:31;7.03;;;4.22;;
35667;SDS011;22158;59.280;17.806;2023-06-14T08:06:58;10.63;;;4.30;;
35667;SDS011;22158;59.280;17.806;2023-06-14T08:09:24;8.82;;;3.40;;
35667;SDS011;22158;59.280;17.806;2023-06-14T08:11:50;8.40;;;3.97;;
35667;SDS011;22158;59.280;17.806;2023-06-14T08:14:16;9.05;;;3.58;;
35667;SDS011;22158;59.280;17.806;2023-06-14T08:16:41;12.50;;;4.22;;
35667;SDS011;22158;59.280;17.806;2023-06-14T08:19:07;6.80;;;3.35;;
35667;SDS011;22158;59.280;17.806;2023-06-14T08:21:33;7.07;;;3.53;;
35667;SDS011;22158;59.280;17.806;2023-06-14T08:24:01;7.15;;;3.60;;
35667;SDS011;22158;59.280;17.806;2023-06-14T08:26:27;6.90;;;3.92;;
35667;SDS011;22158;59.280;17.806;2023-06-14T08:28:56;7.25;;;3.28;;
35667;SDS011;22158;59.280;17.806;2023-06-14T08:31:22;6.20;;;3.53;;
35667;SDS011;22158;59.280;17.806;2023-06-14T08:33:49;9.15;;;4.05;;
35667;SDS011;22158;59.280;17.806;2023-06-14T08:36:15;7.55;;;3.22;;
35667;SDS011;22158;59.280;17.806;2023-06-14T08:38:41;8.05;;;3.75;;
35667;SDS011;22158;59.280;17.806;2023-06-14T08:41:06;8.18;;;3.65;;
35667;SDS011;22158;59.280;17.806;2023-06-14T08:43:36;8.88;;;3.80;;
35667;SDS011;22158;59.280;17.806;2023-06-14T08:46:02;7.80;;;3.33;;
35667;SDS011;22158;59.280;17.806;2023-06-14T08:48:29;6.72;;;3.47;;
35667;SDS011;22158;59.280;17.806;2023-06-14T08:50:59;8.93;;;3.58;;
35667;SDS011;22158;59.280;17.806;2023-06-14T08:53:31;8.73;;;3.85;;
35667;SDS011;22158;59.280;17.806;2023-06-14T08:55:59;6.85;;;4.10;;
35667;SDS011;22158;59.280;17.806;2023-06-14T08:58:27;12.07;;;4.28;;
35667;SDS011;22158;59.280;17.806;2023-06-14T09:00:56;11.13;;;4.50;;
35667;SDS011;22158;59.280;17.806;2023-06-14T09:03:23;8.23;;;3.28;;
35667;SDS011;22158;59.280;17.806;2023-06-14T09:05:54;7.53;;;3.90;;
35667;SDS011;22158;59.280;17.806;2023-06-14T09:08:26;8.52;;;3.45;;
35667;SDS011;22158;59.280;17.806;2023-06-14T09:10:55;8.35;;;3.35;;
35667;SDS011;22158;59.280;17.806;2023-06-14T09:13:21;8.20;;;3.58;;
35667;SDS011;22158;59.280;17.806;2023-06-14T09:15:47;4.57;;;3.05;;
35667;SDS011;22158;59.280;17.806;2023-06-14T09:18:12;7.15;;;3.30;;
35667;SDS011;22158;59.280;17.806;2023-06-14T09:20:38;6.35;;;3.38;;
35667;SDS011;22158;59.280;17.806;2023-06-14T09:23:05;7.13;;;3.35;;
35667;SDS011;22158;59.280;17.806;2023-06-14T09:25:32;6.35;;;3.50;;
35667;SDS011;22158;59.280;17.806;2023-06-14T09:28:06;6.57;;;3.13;;
35667;SDS011;22158;59.280;17.806;2023-06-14T09:30:33;5.75;;;3.38;;
35667;SDS011;22158;59.280;17.806;2023-06-14T09:32:59;11.10;;;4.22;;
35667;SDS011;22158;59.280;17.806;2023-06-14T09:35:24;10.55;;;3.72;;
35667;SDS011;22158;59.280;17.806;2023-06-14T09:37:50;9.48;;;3.70;;
35667;SDS011;22158;59.280;17.806;2023-06-14T09:40:20;7.65;;;3.15;;
35667;SDS011;22158;59.280;17.806;2023-06-14T09:42:46;8.20;;;4.25;;
35667;SDS011;22158;59.280;17.806;2023-06-14T09:45:12;8.75;;;3.60;;
35667;SDS011;22158;59.280;17.806;2023-06-14T09:47:38;6.20;;;3.42;;
35667;SDS011;22158;59.280;17.806;2023-06-14T09:50:05;6.72;;;3.95;;
35667;SDS011;22158;59.280;17.806;2023-06-14T09:52:31;7.80;;;3.88;;
35667;SDS011;22158;59.280;17.806;2023-06-14T09:54:57;5.57;;;3.47;;
35667;SDS011;22158;59.280;17.806;2023-06-14T09:57:25;6.13;;;3.47;;
35667;SDS011;22158;59.280;17.806;2023-06-14T09:59:53;9.13;;;4.25;;
35667;SDS011;22158;59.280;17.806;2023-06-14T10:02:26;6.63;;;4.00;;
35667;SDS011;22158;59.280;17.806;2023-06-14T10:05:15;6.60;;;3.63;;
35667;SDS011;22158;59.280;17.806;2023-06-14T10:07:48;7.43;;;3.45;;
35667;SDS011;22158;59.280;17.806;2023-06-14T10:10:18;6.13;;;3.88;;
35667;SDS011;22158;59.280;17.806;2023-06-14T10:12:44;7.97;;;3.88;;
35667;SDS011;22158;59.280;17.806;2023-06-14T10:15:12;7.25;;;3.78;;
35667;SDS011;22158;59.280;17.806;2023-06-14T10:17:55;9.50;;;4.30;;
35667;SDS011;22158;59.280;17.806;2023-06-14T10:20:35;5.40;;;3.45;;
35667;SDS011;22158;59.280;17.806;2023-06-14T10:23:13;8.45;;;3.83;;
35667;SDS011;22158;59.280;17.806;2023-06-14T10:25:49;9.93;;;3.75;;
35667;SDS011;22158;59.280;17.806;2023-06-14T10:28:16;5.45;;;3.90;;
35667;SDS011;22158;59.280;17.806;2023-06-14T10:33:32;6.13;;;3.33;;
35667;SDS011;22158;59.280;17.806;2023-06-14T10:41:42;7.13;;;4.15;;
35667;SDS011;22158;59.280;17.806;2023-06-14T10:46:54;10.32;;;3.85;;
35667;SDS011;22158;59.280;17.806;2023-06-14T10:49:40;6.55;;;3.78;;
35667;SDS011;22158;59.280;17.806;2023-06-14T10:52:14;6.10;;;3.95;;
35667;SDS011;22158;59.280;17.806;2023-06-14T10:57:42;11.07;;;4.20;;
35667;SDS011;22158;59.280;17.806;2023-06-14T11:00:17;16.88;;;5.32;;
35667;SDS011;22158;59.280;17.806;2023-06-14T11:03:09;6.07;;;4.03;;
35667;SDS011;22158;59.280;17.806;2023-06-14T11:05:59;6.88;;;4.32;;
35667;SDS011;22158;59.280;17.806;2023-06-14T11:11:09;10.10;;;4.60;;
35667;SDS011;22158;59.280;17.806;2023-06-14T11:13:38;8.27;;;4.38;;
35667;SDS011;22158;59.280;17.806;2023-06-14T11:16:10;8.18;;;4.07;;
35667;SDS011;22158;59.280;17.806;2023-06-14T11:18:39;10.85;;;4.50;;
35667;SDS011;22158;59.280;17.806;2023-06-14T11:21:05;5.82;;;4.40;;
35667;SDS011;22158;59.280;17.806;2023-06-14T11:23:31;8.15;;;4.85;;
35667;SDS011;22158;59.280;17.806;2023-06-14T11:25:56;8.63;;;4.50;;
35667;SDS011;22158;59.280;17.806;2023-06-14T11:28:22;8.60;;;4.82;;
35667;SDS011;22158;59.280;17.806;2023-06-14T11:30:49;11.77;;;4.90;;
35667;SDS011;22158;59.280;17.806;2023-06-14T11:33:24;6.65;;;4.18;;
35667;SDS011;22158;59.280;17.806;2023-06-14T11:35:50;7.47;;;4.60;;
35667;SDS011;22158;59.280;17.806;2023-06-14T11:38:17;6.65;;;4.35;;
35667;SDS011;22158;59.280;17.806;2023-06-14T11:40:42;9.52;;;4.40;;
35667;SDS011;22158;59.280;17.806;2023-06-14T11:43:08;8.35;;;5.05;;
35667;SDS011;22158;59.280;17.806;2023-06-14T11:45:34;9.93;;;4.70;;
35667;SDS011;22158;59.280;17.806;2023-06-14T11:48:00;5.20;;;4.32;;
35667;SDS011;22158;59.280;17.806;2023-06-14T11:50:26;5.57;;;3.22;;
35667;SDS011;22158;59.280;17.806;2023-06-14T11:52:53;7.20;;;4.07;;
35667;SDS011;22158;59.280;17.806;2023-06-14T11:55:20;7.88;;;4.50;;
35667;SDS011;22158;59.280;17.806;2023-06-14T11:57:47;12.75;;;4.45;;
35667;SDS011;22158;59.280;17.806;2023-06-14T12:00:12;15.50;;;4.57;;
35667;SDS011;22158;59.280;17.806;2023-06-14T12:02:40;7.88;;;4.45;;
35667;SDS011;22158;59.280;17.806;2023-06-14T12:05:07;4.55;;;3.92;;
35667;SDS011;22158;59.280;17.806;2023-06-14T12:07:36;9.27;;;4.20;;
35667;SDS011;22158;59.280;17.806;2023-06-14T12:12:31;6.68;;;4.30;;
35667;SDS011;22158;59.280;17.806;2023-06-14T12:15:02;9.45;;;4.53;;
35667;SDS011;22158;59.280;17.806;2023-06-14T12:17:31;10.10;;;3.88;;
35667;SDS011;22158;59.280;17.806;2023-06-14T12:19:58;5.68;;;4.20;;
35667;SDS011;22158;59.280;17.806;2023-06-14T12:22:23;8.65;;;4.10;;
35667;SDS011;22158;59.280;17.806;2023-06-14T12:24:49;6.63;;;4.25;;
35667;SDS011;22158;59.280;17.806;2023-06-14T12:27:15;8.18;;;4.05;;
35667;SDS011;22158;59.280;17.806;2023-06-14T12:29:42;7.95;;;4.65;;
35667;SDS011;22158;59.280;17.806;2023-06-14T12:32:11;14.13;;;4.53;;
35667;SDS011;22158;59.280;17.806;2023-06-14T12:34:36;5.60;;;4.55;;
35667;SDS011;22158;59.280;17.806;2023-06-14T12:37:02;5.82;;;4.10;;
35667;SDS011;22158;59.280;17.806;2023-06-14T12:39:31;5.80;;;4.10;;
35667;SDS011;22158;59.280;17.806;2023-06-14T12:41:57;7.63;;;4.20;;
35667;SDS011;22158;59.280;17.806;2023-06-14T12:44:24;14.13;;;4.35;;
35667;SDS011;22158;59.280;17.806;2023-06-14T12:46:49;6.93;;;3.85;;
35667;SDS011;22158;59.280;17.806;2023-06-14T12:49:17;8.55;;;3.67;;
35667;SDS011;22158;59.280;17.806;2023-06-14T12:51:42;9.50;;;4.60;;
35667;SDS011;22158;59.280;17.806;2023-06-14T12:54:08;6.28;;;3.95;;
35667;SDS011;22158;59.280;17.806;2023-06-14T12:56:34;10.82;;;5.10;;
35667;SDS011;22158;59.280;17.806;2023-06-14T12:59:00;10.57;;;4.80;;
35667;SDS011;22158;59.280;17.806;2023-06-14T13:01:26;8.85;;;4.88;;
35667;SDS011;22158;59.280;17.806;2023-06-14T13:03:51;15.48;;;5.00;;
35667;SDS011;22158;59.280;17.806;2023-06-14T13:06:20;15.80;;;5.03;;
35667;SDS011;22158;59.280;17.806;2023-06-14T13:08:47;20.13;;;5.80;;
35667;SDS011;22158;59.280;17.806;2023-06-14T13:11:13;9.57;;;4.15;;
35667;SDS011;22158;59.280;17.806;2023-06-14T13:13:38;11.68;;;4.32;;
35667;SDS011;22158;59.280;17.806;2023-06-14T13:16:04;12.40;;;4.55;;
35667;SDS011;22158;59.280;17.806;2023-06-14T13:18:30;6.88;;;4.10;;
35667;SDS011;22158;59.280;17.806;2023-06-14T13:20:55;12.82;;;4.80;;
35667;SDS011;22158;59.280;17.806;2023-06-14T13:23:21;6.82;;;4.28;;
35667;SDS011;22158;59.280;17.806;2023-06-14T13:25:46;8.20;;;4.35;;
35667;SDS011;22158;59.280;17.806;2023-06-14T13:28:14;7.15;;;4.50;;
35667;SDS011;22158;59.280;17.806;2023-06-14T13:30:40;5.85;;;3.80;;
35667;SDS011;22158;59.280;17.806;2023-06-14T13:33:05;6.47;;;3.90;;
35667;SDS011;22158;59.280;17.806;2023-06-14T13:35:31;12.38;;;4.60;;
35667;SDS011;22158;59.280;17.806;2023-06-14T13:37:56;11.23;;;4.25;;
35667;SDS011;22158;59.280;17.806;2023-06-14T13:40:22;8.75;;;4.60;;
35667;SDS011;22158;59.280;17.806;2023-06-14T13:42:48;10.18;;;4.07;;
35667;SDS011;22158;59.280;17.806;2023-06-14T13:45:13;6.30;;;4.20;;
35667;SDS011;22158;59.280;17.806;2023-06-14T13:47:40;10.07;;;3.88;;
35667;SDS011;22158;59.280;17.806;2023-06-14T13:50:06;10.95;;;4.38;;
35667;SDS011;22158;59.280;17.806;2023-06-14T13:52:32;10.57;;;4.38;;
35667;SDS011;22158;59.280;17.806;2023-06-14T13:54:57;11.75;;;4.93;;
35667;SDS011;22158;59.280;17.806;2023-06-14T13:57:23;5.93;;;3.90;;
35667;SDS011;22158;59.280;17.806;2023-06-14T13:59:49;7.68;;;4.63;;
35667;SDS011;22158;59.280;17.806;2023-06-14T14:02:14;11.05;;;4.05;;
35667;SDS011;22158;59.280;17.806;2023-06-14T14:04:40;4.43;;;3.78;;
35667;SDS011;22158;59.280;17.806;2023-06-14T14:07:06;6.82;;;4.20;;
35667;SDS011;22158;59.280;17.806;2023-06-14T14:09:32;5.28;;;3.67;;
35667;SDS011;22158;59.280;17.806;2023-06-14T14:12:02;5.85;;;4.55;;
35667;SDS011;22158;59.280;17.806;2023-06-14T14:14:29;8.90;;;4.50;;
35667;SDS011;22158;59.280;17.806;2023-06-14T14:16:57;10.93;;;4.53;;
35667;SDS011;22158;59.280;17.806;2023-06-14T14:19:23;8.55;;;3.88;;
35667;SDS011;22158;59.280;17.806;2023-06-14T14:21:49;4.82;;;4.15;;
35667;SDS011;22158;59.280;17.806;2023-06-14T14:24:14;5.00;;;3.75;;
35667;SDS011;22158;59.280;17.806;2023-06-14T14:26:41;7.13;;;3.92;;
35667;SDS011;22158;59.280;17.806;2023-06-14T14:29:06;8.15;;;4.57;;
35667;SDS011;22158;59.280;17.806;2023-06-14T14:31:32;7.97;;;4.00;;
35667;SDS011;22158;59.280;17.806;2023-06-14T14:33:58;7.60;;;3.60;;
35667;SDS011;22158;59.280;17.806;2023-06-14T14:36:23;8.32;;;4.00;;
35667;SDS011;22158;59.280;17.806;2023-06-14T14:38:49;7.22;;;3.67;;
35667;SDS011;22158;59.280;17.806;2023-06-14T14:41:16;5.30;;;4.35;;
35667;SDS011;22158;59.280;17.806;2023-06-14T14:43:42;7.00;;;4.38;;
35667;SDS011;22158;59.280;17.806;2023-06-14T14:46:08;5.25;;;3.67;;
35667;SDS011;22158;59.280;17.806;2023-06-14T14:48:33;8.38;;;4.10;;
35667;SDS011;22158;59.280;17.806;2023-06-14T14:50:59;7.90;;;3.55;;